Time;durP1;ratioP1;P1;durP2;ratioP2;P2;SDS_P1;SDS_P2;PMS_P1;PMS_P2;Temp;Humidity;BMP_temperature;BMP_pressure;BME280_temperature;BME280_humidity;BME280_pressure;Samples;Min_cycle;Max_cycle;Signal;HPM_P1;HPM_P2
2022/04/11 00:02:16;;;;;;;5.93;2.72;;;7.80;99.90;;;;;;6156180;23;20048;-88
2022/04/11 00:04:43;;;;;;;4.05;1.95;;;7.70;99.90;;;;;;6106230;23;20338;-90
2022/04/11 00:07:14;;;;;;;4.25;2.00;;;7.70;99.90;;;;;;6131413;23;20096;-91
2022/04/11 00:09:42;;;;;;;2.80;1.65;;;7.70;99.90;;;;;;6130726;23;20070;-90
2022/04/11 00:12:10;;;;;;;10.25;3.40;;;7.60;99.90;;;;;;6130482;23;20072;-89
2022/04/11 00:14:39;;;;;;;3.58;2.35;;;7.60;99.90;;;;;;6130503;23;20020;-89
2022/04/11 00:17:07;;;;;;;4.22;1.95;;;7.60;99.90;;;;;;6131487;23;20450;-91
2022/04/11 00:19:33;;;;;;;2.80;1.95;;;7.60;99.90;;;;;;6131413;23;20021;-89
2022/04/11 00:22:03;;;;;;;5.18;2.00;;;7.60;99.90;;;;;;6107322;23;20386;-92
2022/04/11 00:24:30;;;;;;;4.70;2.08;;;7.60;99.90;;;;;;6107404;23;20175;-89
2022/04/11 00:26:58;;;;;;;5.05;2.00;;;7.60;99.90;;;;;;6157584;23;20017;-91
2022/04/11 00:29:29;;;;;;;3.40;1.95;;;7.60;99.90;;;;;;6131211;23;20021;-90
2022/04/11 00:31:56;;;;;;;2.72;1.83;;;7.50;99.90;;;;;;6130890;23;20022;-89
2022/04/11 00:34:24;;;;;;;6.93;2.22;;;7.50;99.90;;;;;;6131422;23;20026;-90
2022/04/11 00:36:54;;;;;;;3.97;1.95;;;7.50;99.90;;;;;;6107560;23;20048;-90
2022/04/11 00:39:21;;;;;;;6.63;2.08;;;7.50;99.90;;;;;;6157685;23;20064;-93
2022/04/11 00:41:54;;;;;;;6.97;2.03;;;7.40;99.90;;;;;;6132948;23;20017;-93
2022/04/11 00:44:33;;;;;;;5.93;2.38;;;7.40;99.90;;;;;;6134206;23;20442;-91
2022/04/11 00:47:00;;;;;;;6.20;2.03;;;7.40;99.90;;;;;;6157094;23;20097;-91
2022/04/11 00:49:26;;;;;;;4.65;1.50;;;7.40;99.90;;;;;;6131011;23;20026;-91
2022/04/11 00:51:54;;;;;;;4.75;1.77;;;7.40;99.90;;;;;;6157005;23;20014;-90
2022/04/11 00:55:20;;;;;;;2.47;1.73;;;7.40;99.90;;;;;;6108143;23;20018;-92
2022/04/11 00:57:48;;;;;;;4.03;1.73;;;7.30;99.90;;;;;;6107804;23;20029;-93
2022/04/11 01:00:17;;;;;;;3.17;1.77;;;7.30;99.90;;;;;;6131212;23;20508;-90
2022/04/11 01:02:49;;;;;;;3.15;1.17;;;7.30;99.90;;;;;;6130957;23;20420;-93
2022/04/11 01:05:16;;;;;;;5.28;2.42;;;7.30;99.90;;;;;;6130091;23;20036;-91
2022/04/11 01:07:46;;;;;;;2.40;1.67;;;7.30;99.90;;;;;;6130209;23;20024;-89
2022/04/11 01:10:13;;;;;;;4.15;1.75;;;7.30;99.90;;;;;;6156245;23;20013;-91
2022/04/11 01:12:41;;;;;;;5.55;1.67;;;7.20;99.90;;;;;;6106823;23;20018;-93
2022/04/11 01:15:12;;;;;;;3.00;2.03;;;7.20;99.90;;;;;;6130494;23;20021;-92
2022/04/11 01:17:41;;;;;;;3.85;1.58;;;7.20;99.90;;;;;;6130522;23;20045;-91
2022/04/11 01:20:12;;;;;;;2.42;1.50;;;7.20;99.90;;;;;;6106720;23;20406;-91
2022/04/11 01:22:41;;;;;;;2.65;1.20;;;7.20;99.90;;;;;;6106826;23;20021;-91
2022/04/11 01:25:10;;;;;;;3.72;1.48;;;7.20;99.90;;;;;;6130761;23;20048;-90
2022/04/11 01:27:38;;;;;;;5.38;1.63;;;7.20;99.90;;;;;;6106308;23;20048;-92
2022/04/11 01:30:12;;;;;;;4.82;1.73;;;7.20;99.90;;;;;;6106365;23;20021;-91
2022/04/11 01:32:43;;;;;;;2.70;1.65;;;7.10;99.90;;;;;;6130755;23;20025;-92
2022/04/11 01:35:18;;;;;;;3.00;1.10;;;7.10;99.90;;;;;;6132383;23;20022;-88
2022/04/11 01:37:45;;;;;;;5.10;1.35;;;7.10;99.90;;;;;;6132032;23;20024;-89
2022/04/11 01:40:12;;;;;;;3.33;1.48;;;7.10;99.90;;;;;;6106575;23;20040;-90
2022/04/11 01:42:39;;;;;;;10.27;2.10;;;7.10;99.90;;;;;;6106828;23;20041;-89
2022/04/11 01:45:09;;;;;;;2.35;1.20;;;7.10;99.90;;;;;;6131652;23;20028;-89
2022/04/11 01:47:41;;;;;;;2.53;1.60;;;7.10;99.90;;;;;;6106380;23;20076;-88
2022/04/11 01:50:21;;;;;;;7.72;2.13;;;7.00;99.90;;;;;;6106682;23;20022;-91
2022/04/11 01:52:48;;;;;;;3.85;1.67;;;7.00;99.90;;;;;;6130778;23;20025;-89
2022/04/11 01:55:15;;;;;;;3.20;1.70;;;7.00;99.90;;;;;;6130806;23;20044;-88
2022/04/11 01:57:46;;;;;;;4.30;1.55;;;7.00;99.90;;;;;;6129903;23;20048;-89
2022/04/11 02:00:14;;;;;;;2.47;1.52;;;7.00;99.90;;;;;;6105573;23;20030;-91
2022/04/11 02:02:44;;;;;;;4.93;2.28;;;7.00;99.90;;;;;;6106480;23;20017;-90
2022/04/11 02:05:11;;;;;;;5.28;1.90;;;7.00;99.90;;;;;;6130573;23;20322;-92
2022/04/11 02:07:39;;;;;;;5.18;2.22;;;6.90;99.90;;;;;;6130209;23;20108;-89
2022/04/11 02:10:07;;;;;;;3.28;1.83;;;6.90;99.90;;;;;;6130191;23;20433;-90
2022/04/11 02:12:35;;;;;;;3.15;1.42;;;6.90;99.90;;;;;;6106297;23;20017;-93
2022/04/11 02:15:03;;;;;;;3.15;1.88;;;6.90;99.90;;;;;;6130340;23;20021;-90
2022/04/11 02:17:31;;;;;;;3.85;1.52;;;6.90;99.90;;;;;;6105517;23;20025;-91
2022/04/11 02:19:58;;;;;;;3.13;1.67;;;6.90;99.90;;;;;;6105509;23;20032;-91
2022/04/11 02:22:25;;;;;;;3.65;1.52;;;6.90;99.90;;;;;;6130482;23;20528;-91
2022/04/11 02:24:52;;;;;;;4.38;1.58;;;6.90;99.90;;;;;;6105806;23;20104;-90
2022/04/11 02:27:23;;;;;;;3.17;1.60;;;6.90;99.90;;;;;;6106047;23;20024;-91
2022/04/11 02:29:51;;;;;;;2.63;1.40;;;6.80;99.90;;;;;;6129970;23;20037;-92
2022/04/11 02:32:21;;;;;;;5.32;1.70;;;6.80;99.90;;;;;;6129787;23;20097;-90
2022/04/11 02:34:48;;;;;;;3.75;1.48;;;6.80;99.90;;;;;;6129672;23;20018;-92
2022/04/11 02:37:18;;;;;;;3.75;1.88;;;6.80;99.90;;;;;;6106809;23;20025;-90
2022/04/11 02:39:46;;;;;;;7.25;1.63;;;6.80;99.90;;;;;;6130084;23;20022;-89
2022/04/11 02:42:24;;;;;;;3.42;1.42;;;6.80;99.90;;;;;;6106024;23;20045;-91
2022/04/11 02:44:57;;;;;;;4.68;1.60;;;6.80;99.90;;;;;;6107103;23;20052;-90
2022/04/11 02:47:27;;;;;;;4.63;2.28;;;6.80;99.90;;;;;;6130767;23;20020;-91
2022/04/11 02:49:55;;;;;;;4.07;1.85;;;6.80;99.90;;;;;;6105689;23;20070;-91
2022/04/11 02:52:48;;;;;;;6.93;1.83;;;6.70;99.90;;;;;;6111202;23;20028;-92
2022/04/11 02:55:18;;;;;;;4.05;1.70;;;6.70;99.90;;;;;;6106477;23;20024;-90
2022/04/11 02:57:48;;;;;;;1.95;1.40;;;6.70;99.90;;;;;;6134223;23;20028;-90
2022/04/11 03:00:22;;;;;;;6.70;1.30;;;6.70;99.90;;;;;;6132953;23;20022;-90
2022/04/11 03:02:56;;;;;;;4.28;1.60;;;6.70;99.90;;;;;;6109596;23;20026;-90
2022/04/11 03:05:26;;;;;;;3.33;1.55;;;6.70;99.90;;;;;;6107824;23;20017;-91
2022/04/11 03:07:58;;;;;;;6.38;1.73;;;6.70;99.90;;;;;;6106132;23;20445;-90
2022/04/11 03:10:28;;;;;;;2.75;1.80;;;6.70;99.90;;;;;;6130239;23;20018;-90
2022/04/11 03:13:02;;;;;;;3.40;1.48;;;6.70;99.90;;;;;;6129901;23;20021;-91
2022/04/11 03:15:32;;;;;;;2.75;1.75;;;6.70;99.90;;;;;;6106860;23;20018;-92
2022/04/11 03:18:01;;;;;;;8.05;1.55;;;6.70;99.90;;;;;;6129873;23;20518;-91
2022/04/11 03:20:31;;;;;;;2.83;2.17;;;6.70;99.90;;;;;;6106150;23;20046;-92
2022/04/11 03:22:59;;;;;;;3.17;1.50;;;6.70;99.90;;;;;;6129863;23;20026;-90
2022/04/11 03:25:31;;;;;;;2.97;1.75;;;6.70;99.90;;;;;;6130020;23;20028;-91
2022/04/11 03:27:59;;;;;;;2.95;1.50;;;6.70;99.90;;;;;;6129451;23;20029;-91
2022/04/11 03:30:29;;;;;;;2.85;1.55;;;6.70;99.90;;;;;;6131171;23;20085;-90
2022/04/11 03:32:56;;;;;;;7.50;2.05;;;6.70;99.90;;;;;;6132094;23;20018;-92
2022/04/11 03:35:26;;;;;;;4.35;1.85;;;6.70;99.90;;;;;;6108165;23;20381;-91
2022/04/11 03:37:53;;;;;;;3.60;1.88;;;6.70;99.90;;;;;;6131760;23;20021;-90
2022/04/11 03:40:24;;;;;;;2.08;1.50;;;6.70;99.90;;;;;;6108636;23;20018;-91
2022/04/11 03:42:57;;;;;;;1.83;1.17;;;6.70;99.90;;;;;;6132503;23;20025;-90
2022/04/11 03:45:28;;;;;;;4.43;1.60;;;6.70;99.90;;;;;;6108386;23;20025;-91
2022/04/11 03:48:00;;;;;;;2.85;1.55;;;6.70;99.90;;;;;;6131898;23;20048;-90
2022/04/11 03:50:33;;;;;;;3.42;1.48;;;6.70;99.90;;;;;;6132687;23;20019;-92
2022/04/11 03:53:03;;;;;;;3.58;1.30;;;6.70;99.90;;;;;;6133578;23;20017;-89
2022/04/11 03:55:36;;;;;;;1.98;1.17;;;6.70;99.90;;;;;;6109127;23;20018;-91
2022/04/11 03:58:08;;;;;;;3.58;1.48;;;6.70;99.90;;;;;;6132135;23;20076;-89
2022/04/11 04:00:42;;;;;;;3.65;1.67;;;6.70;99.90;;;;;;6131901;23;20048;-90
2022/04/11 04:03:24;;;;;;;2.85;1.48;;;6.70;99.90;;;;;;6132090;23;20025;-90
2022/04/11 04:06:02;;;;;;;2.80;1.63;;;6.70;99.90;;;;;;6109455;23;20100;-91
2022/04/11 04:08:39;;;;;;;3.83;2.10;;;6.70;99.90;;;;;;6108904;23;20021;-90
2022/04/11 04:11:17;;;;;;;3.25;1.52;;;6.70;99.90;;;;;;6134489;23;20025;-89
2022/04/11 04:14:06;;;;;;;2.67;1.42;;;6.70;99.90;;;;;;6157467;23;20044;-91
2022/04/11 04:16:38;;;;;;;2.67;1.70;;;6.70;99.90;;;;;;6108253;23;20028;-91
2022/04/11 04:19:09;;;;;;;2.30;1.20;;;6.70;99.90;;;;;;6131536;23;20360;-91
2022/04/11 04:21:39;;;;;;;4.60;1.75;;;6.70;99.90;;;;;;6108095;23;20048;-89
2022/04/11 04:24:13;;;;;;;4.88;1.60;;;6.70;99.90;;;;;;6131371;23;20116;-90
2022/04/11 04:26:44;;;;;;;3.60;1.35;;;6.70;99.90;;;;;;6131405;23;20017;-90
2022/04/11 04:29:16;;;;;;;4.80;1.77;;;6.70;99.90;;;;;;6131347;23;20457;-89
2022/04/11 04:31:50;;;;;;;1.58;1.13;;;6.60;99.90;;;;;;6131033;23;20465;-89
2022/04/11 04:34:21;;;;;;;2.90;1.40;;;6.60;99.90;;;;;;6107814;23;20021;-90
2022/04/11 04:36:53;;;;;;;5.53;1.17;;;6.60;99.90;;;;;;6107663;23;20028;-87
2022/04/11 04:39:21;;;;;;;4.85;1.33;;;6.60;99.90;;;;;;6131006;23;20025;-89
2022/04/11 04:41:50;;;;;;;3.28;1.52;;;6.60;99.90;;;;;;6106981;23;20206;-90
2022/04/11 04:44:19;;;;;;;6.43;1.30;;;6.60;99.90;;;;;;6107702;23;20468;-89
2022/04/11 04:46:52;;;;;;;2.67;1.27;;;6.60;99.90;;;;;;6131727;23;20025;-89
2022/04/11 04:49:33;;;;;;;1.98;0.80;;;6.60;99.90;;;;;;6131714;23;20041;-88
2022/04/11 04:52:02;;;;;;;2.20;1.17;;;6.60;99.90;;;;;;6107776;23;20049;-91
2022/04/11 04:54:35;;;;;;;3.50;1.80;;;6.60;99.90;;;;;;6131741;23;20341;-91
2022/04/11 04:57:03;;;;;;;2.08;1.25;;;6.60;99.90;;;;;;6131274;23;20032;-90
2022/04/11 04:59:31;;;;;;;2.80;1.40;;;6.60;99.90;;;;;;6107276;23;20041;-89
2022/04/11 05:02:04;;;;;;;3.75;1.27;;;6.60;99.90;;;;;;6117946;23;20504;-90
2022/04/11 05:04:34;;;;;;;2.72;1.52;;;6.60;99.90;;;;;;6139114;23;20021;-90
2022/04/11 05:07:02;;;;;;;3.65;1.30;;;6.60;99.90;;;;;;6140806;23;20017;-90
2022/04/11 05:09:34;;;;;;;3.50;1.20;;;6.60;99.90;;;;;;6130432;23;20052;-89
2022/04/11 05:12:03;;;;;;;2.88;1.50;;;6.60;99.90;;;;;;6102843;23;20044;-89
2022/04/11 05:14:40;;;;;;;2.22;1.08;;;6.60;99.90;;;;;;6105571;23;20041;-90
2022/04/11 05:17:22;;;;;;;3.42;1.20;;;6.60;99.90;;;;;;6131434;23;20021;-90
2022/04/11 05:19:49;;;;;;;2.60;1.00;;;6.60;99.90;;;;;;6131118;23;20033;-89
2022/04/11 05:22:17;;;;;;;2.42;0.85;;;6.60;99.90;;;;;;6130411;23;20025;-90
2022/04/11 05:24:44;;;;;;;1.50;0.70;;;6.60;99.90;;;;;;6130823;23;20032;-91
2022/04/11 05:27:11;;;;;;;1.65;1.02;;;6.60;99.90;;;;;;6106006;23;20017;-89
2022/04/11 05:29:39;;;;;;;3.05;1.15;;;6.50;99.90;;;;;;6106567;23;20397;-89
2022/04/11 05:32:11;;;;;;;1.42;1.00;;;6.60;99.90;;;;;;6130690;23;20376;-90
2022/04/11 05:34:38;;;;;;;2.22;1.05;;;6.50;99.90;;;;;;6130293;23;20028;-90
2022/04/11 05:37:06;;;;;;;1.35;0.57;;;6.50;99.90;;;;;;6130744;23;20025;-90
2022/04/11 05:39:33;;;;;;;3.92;1.63;;;6.60;99.90;;;;;;6130006;23;20475;-90
2022/04/11 05:42:00;;;;;;;2.15;1.23;;;6.50;99.90;;;;;;6130177;23;20055;-90
2022/04/11 05:44:28;;;;;;;3.78;1.20;;;6.60;99.90;;;;;;6106046;23;20530;-91
2022/04/11 05:46:55;;;;;;;2.33;1.08;;;6.60;99.90;;;;;;6106137;23;20013;-89
2022/04/11 05:49:32;;;;;;;2.33;1.35;;;6.50;99.90;;;;;;6130199;23;20018;-89
2022/04/11 05:52:00;;;;;;;4.35;1.42;;;6.60;99.90;;;;;;6130050;23;20021;-89
2022/04/11 05:54:27;;;;;;;1.75;1.10;;;6.60;99.90;;;;;;6106296;23;20018;-90
2022/04/11 05:56:56;;;;;;;2.50;1.75;;;6.50;99.90;;;;;;6130516;23;20026;-91
2022/04/11 05:59:23;;;;;;;6.35;2.55;;;6.50;99.90;;;;;;6129618;23;20026;-91
2022/04/11 06:01:50;;;;;;;7.18;2.58;;;6.50;99.90;;;;;;6129756;23;20029;-92
2022/04/11 06:04:17;;;;;;;1.92;1.50;;;6.50;99.90;;;;;;6130342;23;20025;-89
2022/04/11 06:06:44;;;;;;;2.45;1.23;;;6.50;99.90;;;;;;6106077;23;20055;-90
2022/04/11 06:09:12;;;;;;;2.25;1.30;;;6.50;99.90;;;;;;6130796;23;20077;-91
2022/04/11 06:11:41;;;;;;;6.82;2.08;;;6.60;99.90;;;;;;6132050;23;20018;-92
2022/04/11 06:14:08;;;;;;;3.75;2.17;;;6.60;99.90;;;;;;6108710;23;20076;-89
2022/04/11 06:16:36;;;;;;;3.22;2.15;;;6.60;99.90;;;;;;6135147;23;20068;-89
2022/04/11 06:19:03;;;;;;;6.93;2.55;;;6.60;99.90;;;;;;6111953;23;20512;-89
2022/04/11 06:21:31;;;;;;;3.72;1.65;;;6.60;99.90;;;;;;6087790;23;20025;-89
2022/04/11 06:23:59;;;;;;;4.63;2.70;;;6.60;99.90;;;;;;6112579;23;20021;-88
2022/04/11 06:26:27;;;;;;;8.13;2.35;;;6.60;99.90;;;;;;6111105;23;20021;-90
2022/04/11 06:28:55;;;;;;;5.22;2.30;;;6.70;99.90;;;;;;6111634;23;20706;-91
2022/04/11 06:31:23;;;;;;;6.05;2.50;;;6.70;99.90;;;;;;6132527;23;20029;-89
2022/04/11 06:33:56;;;;;;;5.03;2.15;;;6.70;99.90;;;;;;6108170;23;20041;-90
2022/04/11 06:36:26;;;;;;;6.30;2.38;;;6.70;99.90;;;;;;6107794;23;20024;-92
2022/04/11 06:38:56;;;;;;;3.85;2.22;;;6.80;99.90;;;;;;6131779;23;20092;-89
2022/04/11 06:41:29;;;;;;;6.93;3.00;;;6.80;99.90;;;;;;6108166;23;20072;-90
2022/04/11 06:44:02;;;;;;;5.03;2.72;;;6.80;99.90;;;;;;6132100;23;20032;-90
2022/04/11 06:46:40;;;;;;;6.53;2.45;;;6.80;99.90;;;;;;6133040;23;20025;-92
2022/04/11 06:49:07;;;;;;;7.82;3.08;;;6.90;99.90;;;;;;6133166;23;20027;-89
2022/04/11 06:51:34;;;;;;;7.18;2.80;;;7.00;99.90;;;;;;6109137;23;20022;-91
2022/04/11 06:54:02;;;;;;;6.03;2.75;;;7.10;99.90;;;;;;6132226;23;20021;-91
2022/04/11 06:56:29;;;;;;;3.28;1.90;;;7.10;99.90;;;;;;6109845;23;20017;-91
2022/04/11 06:58:56;;;;;;;3.53;1.52;;;7.10;99.90;;;;;;6130167;23;20056;-91
2022/04/11 07:01:24;;;;;;;4.78;1.60;;;7.10;99.90;;;;;;6130364;23;20033;-91
2022/04/11 07:03:53;;;;;;;5.00;1.75;;;7.10;99.90;;;;;;6159911;23;20017;-89
2022/04/11 07:06:20;;;;;;;8.32;2.30;;;7.20;99.90;;;;;;6132454;23;20030;-92
2022/04/11 07:08:47;;;;;;;10.77;2.20;;;7.30;99.90;;;;;;6110969;23;20028;-89
2022/04/11 07:11:14;;;;;;;10.05;2.92;;;7.30;99.90;;;;;;6159958;23;20068;-91
2022/04/11 07:13:42;;;;;;;6.30;2.97;;;7.40;99.90;;;;;;6130866;23;20044;-88
2022/04/11 07:16:09;;;;;;;4.78;2.05;;;7.40;99.90;;;;;;6129959;23;20018;-89
2022/04/11 07:18:38;;;;;;;3.45;1.80;;;7.40;99.90;;;;;;6106255;23;20028;-92
2022/04/11 07:21:05;;;;;;;4.63;2.13;;;7.40;99.90;;;;;;6105652;23;20457;-90
2022/04/11 07:23:32;;;;;;;5.38;2.70;;;7.50;99.90;;;;;;6105743;23;20026;-90
2022/04/11 07:25:59;;;;;;;5.53;2.83;;;7.60;99.90;;;;;;6129383;23;20052;-90
2022/04/11 07:28:27;;;;;;;6.07;2.63;;;7.80;99.90;;;;;;6129926;23;20353;-89
2022/04/11 07:30:54;;;;;;;6.95;2.83;;;7.80;99.90;;;;;;6104798;23;20018;-92
2022/04/11 07:33:21;;;;;;;5.75;2.63;;;7.80;99.90;;;;;;6129408;23;20010;-90
2022/04/11 07:35:48;;;;;;;5.63;2.95;;;7.90;99.90;;;;;;6129475;23;20543;-90
2022/04/11 07:38:15;;;;;;;10.32;2.97;;;8.10;99.90;;;;;;6105729;23;20021;-89
2022/04/11 07:40:47;;;;;;;6.53;3.40;;;8.30;99.90;;;;;;6155134;23;20021;-92
2022/04/11 07:43:15;;;;;;;8.85;3.15;;;8.30;99.90;;;;;;6129295;23;20112;-89
2022/04/11 07:45:43;;;;;;;9.73;2.55;;;8.30;99.90;;;;;;6129500;23;20033;-90
2022/04/11 07:48:10;;;;;;;4.82;2.88;;;8.30;99.90;;;;;;6129423;23;20033;-91
2022/04/11 07:50:37;;;;;;;5.22;2.80;;;8.40;99.90;;;;;;6136986;23;20021;-89
2022/04/11 07:53:04;;;;;;;10.00;3.53;;;8.50;99.90;;;;;;6156108;23;20014;-89
2022/04/11 07:55:33;;;;;;;7.57;2.75;;;8.50;99.90;;;;;;6144162;23;20037;-91
2022/04/11 07:58:04;;;;;;;5.45;2.85;;;8.60;99.90;;;;;;6108528;23;20017;-91
2022/04/11 08:00:31;;;;;;;7.45;3.25;;;8.60;99.90;;;;;;6107134;23;20445;-91
2022/04/11 08:02:58;;;;;;;5.65;2.58;;;8.50;99.90;;;;;;6105776;23;20044;-92
2022/04/11 08:05:25;;;;;;;6.55;3.20;;;8.50;99.90;;;;;;6129680;23;20013;-90
2022/04/11 08:07:53;;;;;;;8.25;3.58;;;8.50;99.90;;;;;;6130269;23;20051;-89
2022/04/11 08:10:21;;;;;;;7.80;3.20;;;8.70;99.90;;;;;;6105425;23;20024;-89
2022/04/11 08:12:59;;;;;;;5.43;2.65;;;8.60;99.90;;;;;;6105665;23;20049;-90
2022/04/11 08:15:29;;;;;;;6.38;2.85;;;8.70;99.90;;;;;;6130948;23;20112;-89
2022/04/11 08:17:57;;;;;;;6.95;3.67;;;8.90;99.90;;;;;;6131630;23;20025;-92
2022/04/11 08:20:25;;;;;;;5.70;3.10;;;9.00;99.90;;;;;;6130664;23;20021;-91
2022/04/11 08:22:53;;;;;;;9.40;3.63;;;9.00;99.90;;;;;;6132159;23;20097;-89
2022/04/11 08:25:21;;;;;;;10.43;4.60;;;9.10;99.90;;;;;;6131733;23;20453;-89
2022/04/11 08:27:50;;;;;;;7.85;3.60;;;9.10;99.90;;;;;;6107510;23;20079;-91
2022/04/11 08:30:17;;;;;;;9.50;3.58;;;9.20;99.90;;;;;;6157211;23;20088;-88
2022/04/11 08:32:46;;;;;;;7.13;3.13;;;9.20;99.90;;;;;;6107692;23;20022;-89
2022/04/11 08:35:14;;;;;;;6.38;3.15;;;9.10;99.90;;;;;;6131276;23;20077;-91
2022/04/11 08:37:42;;;;;;;14.15;4.60;;;9.10;99.90;;;;;;6157108;23;20681;-87
2022/04/11 08:40:12;;;;;;;6.45;3.33;;;9.30;99.90;;;;;;6131956;23;20029;-89
2022/04/11 08:42:41;;;;;;;6.22;2.88;;;9.20;99.90;;;;;;6107754;23;20029;-91
2022/04/11 08:45:13;;;;;;;5.75;3.25;;;9.20;99.90;;;;;;6131898;23;20108;-88
2022/04/11 08:47:42;;;;;;;9.80;3.45;;;9.40;99.90;;;;;;6130981;23;20143;-90
2022/04/11 08:50:10;;;;;;;5.88;3.90;;;9.40;99.90;;;;;;6130573;23;20018;-89
2022/04/11 08:52:38;;;;;;;7.63;4.63;;;9.50;99.90;;;;;;6106970;23;20048;-89
2022/04/11 08:55:06;;;;;;;13.05;5.57;;;9.70;99.90;;;;;;6130865;23;20021;-90
2022/04/11 08:57:36;;;;;;;10.13;4.75;;;9.70;99.90;;;;;;6131072;23;20021;-90
2022/04/11 09:00:19;;;;;;;11.35;5.38;;;9.70;99.90;;;;;;6106620;23;20650;-90
2022/04/11 09:02:46;;;;;;;6.18;3.90;;;9.70;99.90;;;;;;6106574;23;20101;-89
2022/04/11 09:05:20;;;;;;;8.15;4.68;;;9.60;99.90;;;;;;6129933;23;20536;-89
2022/04/11 09:07:56;;;;;;;7.32;4.63;;;9.70;99.90;;;;;;6130166;23;20018;-89
2022/04/11 09:10:27;;;;;;;13.25;5.15;;;9.70;99.90;;;;;;6105295;23;20032;-89
2022/04/11 09:12:59;;;;;;;10.57;5.38;;;9.90;99.90;;;;;;6129673;23;20014;-88
2022/04/11 09:15:28;;;;;;;8.50;5.00;;;10.00;99.90;;;;;;6105448;23;20100;-89
2022/04/11 09:17:57;;;;;;;11.23;5.43;;;9.90;99.90;;;;;;6105887;23;20152;-88
2022/04/11 09:20:29;;;;;;;7.93;4.53;;;10.10;99.90;;;;;;6129023;23;20026;-89
2022/04/11 09:22:57;;;;;;;15.73;5.60;;;10.20;1.00;;;;;;6105684;23;20021;-89
2022/04/11 09:25:31;;;;;;;7.82;4.70;;;10.20;1.00;;;;;;6129270;23;20076;-89
2022/04/11 09:28:07;;;;;;;6.60;3.58;;;10.20;1.00;;;;;;6105068;23;20131;-89
2022/04/11 09:30:35;;;;;;;8.32;4.07;;;10.00;1.00;;;;;;6128953;23;20014;-88
2022/04/11 09:33:05;;;;;;;6.35;3.63;;;10.30;1.00;;;;;;6106011;23;20378;-88
2022/04/11 09:35:36;;;;;;;8.40;4.03;;;10.30;1.00;;;;;;6129459;23;20024;-88
2022/04/11 09:38:09;;;;;;;8.15;4.10;;;10.50;1.00;;;;;;6129421;23;20025;-88
2022/04/11 09:40:44;;;;;;;;;;;10.50;1.00;;;;;;6129772;23;20033;-88
2022/04/11 09:43:13;;;;;;;9.68;4.68;;;10.40;1.00;;;;;;6130724;23;19923;-90
2022/04/11 09:45:42;;;;;;;10.02;5.10;;;10.50;1.00;;;;;;6130072;23;20033;-89
2022/04/11 09:48:10;;;;;;;10.60;4.60;;;10.60;1.00;;;;;;6133067;23;20076;-91
2022/04/11 09:50:37;;;;;;;10.52;5.30;;;10.60;1.00;;;;;;6155594;23;20048;-90
2022/04/11 09:53:20;;;;;;;8.48;5.20;;;10.80;1.00;;;;;;6129965;23;20033;-88
2022/04/11 09:55:52;;;;;;;10.68;5.32;;;10.80;1.00;;;;;;6155508;23;20010;-90
2022/04/11 09:58:22;;;;;;;11.73;5.35;;;10.90;1.00;;;;;;6129403;23;20628;-90
2022/04/11 10:00:51;;;;;;;9.32;5.72;;;10.90;1.00;;;;;;6104967;23;20098;-89
2022/04/11 10:03:23;;;;;;;7.90;5.22;;;10.90;1.00;;;;;;6106777;23;20052;-89
2022/04/11 10:05:54;;;;;;;8.73;4.93;;;10.90;1.00;;;;;;6109713;23;20057;-90
2022/04/11 10:08:42;;;;;;;10.55;5.10;;;10.90;1.00;;;;;;6107291;23;20048;-86
2022/04/11 10:11:18;;;;;;;11.05;5.43;;;11.10;1.00;;;;;;6111301;23;20022;-90
2022/04/11 10:13:50;;;;;;;7.80;5.10;;;11.10;1.00;;;;;;6132070;23;20087;-90
2022/04/11 10:16:22;;;;;;;11.00;5.93;;;11.20;1.00;;;;;;6129070;23;20064;-92
2022/04/11 10:19:00;;;;;;;11.55;6.03;;;11.30;1.00;;;;;;6129811;23;20022;-90
2022/04/11 10:21:35;;;;;;;11.85;5.45;;;11.20;1.00;;;;;;6105396;23;20075;-91
2022/04/11 10:24:27;;;;;;;9.00;4.95;;;11.30;1.00;;;;;;6108853;23;20021;-91
2022/04/11 10:27:13;;;;;;;16.05;6.38;;;11.50;1.00;;;;;;6105427;23;20017;-91
2022/04/11 10:29:43;;;;;;;15.43;6.47;;;11.50;1.00;;;;;;6156027;23;20017;-90
2022/04/11 10:32:15;;;;;;;10.07;5.60;;;11.70;1.00;;;;;;6129781;23;20024;-91
2022/04/11 10:34:53;;;;;;;13.95;6.03;;;11.70;1.00;;;;;;6155943;23;20040;-90
2022/04/11 10:37:26;;;;;;;11.75;5.32;;;11.70;1.00;;;;;;6130585;23;20021;-91
2022/04/11 10:40:17;;;;;;;6.22;4.57;;;11.80;1.00;;;;;;6105395;23;20508;-92
2022/04/11 10:43:04;;;;;;;10.48;6.15;;;11.80;1.00;;;;;;6128736;23;20031;-87
2022/04/11 10:45:57;;;;;;;9.18;5.43;;;11.80;1.00;;;;;;6129919;23;20072;-94
2022/04/11 10:48:57;;;;;;;9.97;5.97;;;11.80;1.00;;;;;;6104942;23;20017;-91
2022/04/11 10:51:27;;;;;;;9.57;5.57;;;11.80;1.00;;;;;;6105773;23;20259;-89
2022/04/11 10:54:39;;;;;;;9.68;6.80;;;11.80;1.00;;;;;;6128600;23;20022;-93
2022/04/11 10:57:35;;;;;;;13.10;6.28;;;11.80;1.00;;;;;;6090429;23;20014;-90
2022/04/11 11:00:50;;;;;;;11.15;5.97;;;12.00;1.00;;;;;;6130077;23;20108;-93
2022/04/11 11:03:25;;;;;;;8.65;5.57;;;12.20;1.00;;;;;;6107489;23;20024;-91
2022/04/11 11:06:28;;;;;;;9.48;5.97;;;12.30;1.00;;;;;;6111200;23;20021;-92
2022/04/11 11:09:17;;;;;;;9.90;6.00;;;12.40;1.00;;;;;;6130807;23;20105;-91
2022/04/11 11:11:49;;;;;;;12.32;7.07;;;12.60;1.00;;;;;;6106353;23;20057;-89
2022/04/11 11:14:40;;;;;;;9.45;6.45;;;12.30;1.00;;;;;;6104691;23;20018;-88
2022/04/11 11:17:07;;;;;;;10.95;6.43;;;12.30;1.00;;;;;;6129802;23;20024;-91
2022/04/11 11:20:06;;;;;;;9.50;5.55;;;12.40;1.00;;;;;;6105544;23;20026;-89
2022/04/11 11:23:10;;;;;;;10.07;6.07;;;12.60;1.00;;;;;;6105776;23;20021;-90
2022/04/11 11:25:38;;;;;;;12.32;6.13;;;12.60;1.00;;;;;;6105752;23;20025;-91
2022/04/11 11:28:06;;;;;;;12.07;6.10;;;12.80;1.00;;;;;;6130193;23;20037;-90
2022/04/11 11:30:34;;;;;;;9.43;5.85;;;12.60;1.00;;;;;;6129616;23;20021;-89
2022/04/11 11:33:11;;;;;;;14.07;6.93;;;12.60;1.00;;;;;;6106132;23;20036;-91
2022/04/11 11:35:53;;;;;;;10.82;6.18;;;12.80;1.00;;;;;;6106054;23;20047;-90
2022/04/11 11:38:34;;;;;;;10.38;5.95;;;12.60;1.00;;;;;;6155442;23;20097;-93
2022/04/11 11:41:13;;;;;;;11.70;6.85;;;12.50;1.00;;;;;;6108774;23;20018;-93
2022/04/11 11:43:48;;;;;;;9.73;5.97;;;12.80;1.00;;;;;;6105119;23;20028;-90
2022/04/11 11:46:29;;;;;;;12.00;6.43;;;12.80;1.00;;;;;;6131402;23;20025;-91
2022/04/11 11:49:47;;;;;;;9.57;6.22;;;12.90;1.00;;;;;;6129613;23;20041;-93
2022/04/11 11:53:50;;;;;;;14.45;7.88;;;13.00;1.00;;;;;;6090946;23;20352;-93
2022/04/11 12:00:42;;;;;;;10.52;5.75;;;12.90;1.00;;;;;;6096732;23;20082;-84
2022/04/11 12:04:19;;;;;;;9.70;6.13;;;13.00;1.00;;;;;;6100857;23;20040;-91
2022/04/11 12:06:55;;;;;;;10.73;6.28;;;13.20;1.00;;;;;;6098752;23;20352;-91
2022/04/11 12:09:22;;;;;;;10.27;6.07;;;13.20;1.00;;;;;;6117704;23;20007;-90
2022/04/11 12:11:54;;;;;;;11.80;6.15;;;13.50;1.00;;;;;;6115116;23;20022;-88
2022/04/11 12:14:56;;;;;;;14.95;6.40;;;13.40;1.00;;;;;;6084909;23;20030;-95
2022/04/11 12:17:31;;;;;;;11.27;5.70;;;13.20;1.00;;;;;;6015744;23;20575;-91
2022/04/11 12:20:28;;;;;;;9.93;5.75;;;13.20;1.00;;;;;;6016057;23;20067;-92
2022/04/11 12:23:11;;;;;;;12.43;6.72;;;13.50;1.00;;;;;;6014640;23;20019;-92
2022/04/11 12:25:44;;;;;;;;;;;13.20;1.00;;;;;;6015956;23;20024;-93
2022/04/11 12:28:26;;;;;;;10.80;6.80;;;13.30;1.00;;;;;;6039324;23;19968;-91
2022/04/11 12:31:05;;;;;;;13.67;6.30;;;13.50;1.00;;;;;;6050403;23;20018;-93
2022/04/11 12:33:44;;;;;;;16.20;6.13;;;13.60;1.00;;;;;;6096866;23;20027;-92
2022/04/11 12:36:35;;;;;;;11.15;6.25;;;13.70;1.00;;;;;;6096202;23;20093;-92
2022/04/11 12:39:12;;;;;;;10.80;6.07;;;13.30;1.00;;;;;;6071834;23;20077;-92
2022/04/11 12:41:48;;;;;;;11.18;6.30;;;13.40;1.00;;;;;;6095971;23;20022;-91
2022/04/11 12:44:22;;;;;;;9.40;5.95;;;13.40;1.00;;;;;;6096103;23;20454;-90
2022/04/11 12:47:01;;;;;;;11.57;6.45;;;13.70;1.00;;;;;;6096895;23;20027;-93
2022/04/11 12:49:55;;;;;;;12.10;5.95;;;13.50;1.00;;;;;;6127938;23;20014;-92
2022/04/11 12:52:36;;;;;;;9.68;5.68;;;13.80;1.00;;;;;;6130905;23;20041;-92
2022/04/11 12:55:35;;;;;;;8.60;5.75;;;13.50;1.00;;;;;;6131416;23;20018;-91
2022/04/11 12:58:12;;;;;;;8.55;6.07;;;13.90;1.00;;;;;;6107167;23;20022;-93
2022/04/11 13:04:15;;;;;;;8.30;4.95;;;14.30;1.00;;;;;;6104982;23;20086;-92
2022/04/11 13:07:41;;;;;;;9.40;5.75;;;14.20;1.00;;;;;;6157892;23;20065;-93
2022/04/11 13:10:51;;;;;;;;;;;;;;;;;;;;;
2022/04/11 13:21:21;;;;;;;9.55;6.15;;;14.20;1.00;;;;;;6131527;23;20025;-91
2022/04/11 13:25:26;;;;;;;;;;;;;;;;;;;;;
2022/04/11 13:41:09;;;;;;;11.52;5.97;;;14.20;1.00;;;;;;6161027;23;20025;-90
2022/04/11 13:43:45;;;;;;;11.65;7.38;;;13.60;1.00;;;;;;6132614;23;20028;-91
2022/04/11 13:46:12;;;;;;;11.82;6.15;;;13.50;1.00;;;;;;6156030;23;20021;-92
2022/04/11 13:48:42;;;;;;;11.82;6.15;;;13.60;1.00;;;;;;6135651;23;20088;-94
2022/04/11 13:51:12;;;;;;;12.07;7.00;;;13.90;1.00;;;;;;6131371;23;20018;-93
2022/04/11 13:53:41;;;;;;;11.40;6.50;;;13.90;1.00;;;;;;6155920;23;20041;-93
2022/04/11 13:56:11;;;;;;;10.02;5.90;;;14.00;1.00;;;;;;6130971;23;20448;-89
2022/04/11 13:58:47;;;;;;;10.73;5.85;;;14.30;1.00;;;;;;6107087;23;20031;-91
2022/04/11 14:05:49;;;;;;;7.78;5.25;;;14.10;1.00;;;;;;6095556;23;20073;-88